Time;durP1;ratioP1;P1;durP2;ratioP2;P2;SDS_P1;SDS_P2;PMS_P1;PMS_P2;Temp;Humidity;BMP_temperature;BMP_pressure;BME280_temperature;BME280_humidity;BME280_pressure;Samples;Min_cycle;Max_cycle;Signal;HPM_P1;HPM_P2
2023/12/12 00:00:03;;;;;;;;;47.75;41.25;;;;;8.66;47.88;98964.44;5071719;28;8966;-76
2023/12/12 00:03:01;;;;;;;;;49.25;41.25;;;;;8.73;47.55;98963.41;5091515;28;8874;-77
2023/12/12 00:05:30;;;;;;;;;46.00;38.75;;;;;8.76;47.43;98967.72;5088437;28;8836;-75
2023/12/12 00:08:00;;;;;;;;;39.20;36.40;;;;;8.82;47.32;98975.47;5084775;28;8845;-76
2023/12/12 00:10:29;;;;;;;;;48.60;38.00;;;;;8.84;47.19;98965.81;5104921;28;8938;-77
2023/12/12 00:12:58;;;;;;;;;36.20;32.40;;;;;8.87;47.49;98968.34;5104330;28;8858;-75
2023/12/12 00:15:27;;;;;;;;;42.40;37.20;;;;;8.88;47.09;98971.84;5105727;28;8948;-75
2023/12/12 00:17:56;;;;;;;;;37.00;35.00;;;;;8.91;47.14;98984.84;5107230;28;8866;-76
2023/12/12 00:20:27;;;;;;;;;44.60;35.20;;;;;8.82;47.83;98983.31;5106698;28;8956;-76
2023/12/12 00:22:56;;;;;;;;;42.40;38.00;;;;;8.84;47.64;98987.63;5107302;28;8866;-77
2023/12/12 00:25:24;;;;;;;;;48.50;42.00;;;;;8.82;48.54;98989.41;5121537;27;8877;-76
2023/12/12 00:27:54;;;;;;;;;40.00;35.20;;;;;8.86;49.79;98987.59;5078796;27;8892;-76
2023/12/12 00:30:24;;;;;;;;;49.50;40.00;;;;;8.86;49.42;98990.22;5133332;27;8849;-75
2023/12/12 00:32:53;;;;;;;;;44.20;38.80;;;;;8.86;49.71;98992.84;5132420;27;8934;-74
2023/12/12 00:35:22;;;;;;;;;46.50;38.00;;;;;8.87;50.22;98994.53;5088465;28;8907;-74
2023/12/12 00:37:52;;;;;;;;;37.40;36.00;;;;;8.88;50.45;98987.56;5084242;28;8859;-76
2023/12/12 00:40:21;;;;;;;;;44.50;38.75;;;;;8.85;51.09;98975.38;5106209;28;8887;-76
2023/12/12 00:42:51;;;;;;;;;50.00;42.00;;;;;8.85;51.18;98980.63;5108984;28;9676;-75
2023/12/12 00:45:20;;;;;;;;;46.75;40.50;;;;;8.87;51.95;98988.44;5091647;28;8846;-76
2023/12/12 00:47:49;;;;;;;;;52.75;40.25;;;;;8.77;52.58;98996.50;5058032;28;8982;-74
2023/12/12 00:50:18;;;;;;;;;47.00;40.00;;;;;8.72;52.89;98997.50;5109685;28;8852;-76
2023/12/12 00:52:47;;;;;;;;;48.00;40.50;;;;;8.69;53.62;99008.09;5109145;28;8886;-77
2023/12/12 00:55:17;;;;;;;;;36.00;33.80;;;;;8.71;53.62;99001.91;5071957;28;8846;-75
2023/12/12 00:57:47;;;;;;;;;25.00;24.00;;;;;8.57;54.06;98996.09;5075012;28;8950;-76
2023/12/12 01:00:17;;;;;;;;;18.60;16.00;;;;;8.10;55.52;98998.78;5091178;28;9025;-76
2023/12/12 01:02:46;;;;;;;;;16.60;16.00;;;;;8.22;55.49;99002.91;5091436;28;8827;-75
2023/12/12 01:05:15;;;;;;;;;18.40;18.40;;;;;8.12;55.63;99003.97;5108757;28;8947;-76
2023/12/12 01:07:44;;;;;;;;;19.60;16.80;;;;;8.18;55.39;99014.34;5132710;27;8860;-75
2023/12/12 01:10:13;;;;;;;;;18.00;17.80;;;;;8.07;55.84;99020.63;5149118;27;8975;-75
2023/12/12 01:12:43;;;;;;;;;23.40;22.40;;;;;8.19;55.94;99023.91;5152682;27;9012;-77
2023/12/12 01:15:12;;;;;;;;;21.20;19.40;;;;;8.13;56.17;99016.16;5152557;27;8847;-75
2023/12/12 01:17:42;;;;;;;;;20.40;20.00;;;;;8.12;55.26;99017.94;5155837;27;9547;-75
2023/12/12 01:20:11;;;;;;;;;21.60;20.40;;;;;8.14;55.69;99023.16;5080336;27;8845;-74
2023/12/12 01:22:40;;;;;;;;;22.20;21.20;;;;;8.16;55.36;99018.75;5098802;28;8881;-77
2023/12/12 01:25:09;;;;;;;;;25.60;24.00;;;;;8.21;55.32;99022.09;5106613;28;9655;-74
2023/12/12 01:27:38;;;;;;;;;28.40;25.80;;;;;8.30;55.72;99014.09;5090705;27;8861;-75
2023/12/12 01:30:09;;;;;;;;;25.80;25.80;;;;;8.11;55.79;99016.19;5128507;27;8972;-74
2023/12/12 01:32:38;;;;;;;;;27.60;26.80;;;;;8.25;55.24;99010.69;5061149;27;8884;-74
2023/12/12 01:35:08;;;;;;;;;28.80;28.80;;;;;8.19;55.62;99008.19;5113931;27;9790;-74
2023/12/12 01:37:37;;;;;;;;;38.20;35.40;;;;;7.94;56.35;99010.44;5107722;28;8868;-75
2023/12/12 01:40:08;;;;;;;;;34.00;28.40;;;;;7.92;56.59;99005.22;5073852;28;9033;-74
2023/12/12 01:42:38;;;;;;;;;35.40;32.80;;;;;7.96;56.71;99003.41;5120718;27;8864;-76
2023/12/12 01:45:09;;;;;;;;;35.40;31.20;;;;;8.00;56.41;98999.84;5128020;27;8922;-73
2023/12/12 01:47:38;;;;;;;;;34.00;33.80;;;;;7.98;57.03;99001.63;5094599;27;8857;-73
2023/12/12 01:50:08;;;;;;;;;30.80;28.80;;;;;7.95;57.11;98997.31;5121088;27;8911;-76
2023/12/12 01:52:38;;;;;;;;;30.40;29.00;;;;;7.95;56.65;98999.06;5107791;28;8869;-74
2023/12/12 01:55:08;;;;;;;;;35.40;32.40;;;;;7.86;56.92;98992.25;5107546;28;8936;-75
2023/12/12 01:57:41;;;;;;;;;36.00;31.60;;;;;7.89;56.73;98981.72;5084666;27;8851;-75
2023/12/12 02:00:13;;;;;;;;;25.40;25.20;;;;;7.86;56.28;98979.16;5153010;27;8858;-77
2023/12/12 02:02:42;;;;;;;;;26.80;24.80;;;;;7.78;56.38;98981.94;5151639;27;8867;-75
2023/12/12 02:05:12;;;;;;;;;27.00;26.40;;;;;7.75;56.25;98978.50;5134701;27;8847;-75
2023/12/12 02:07:42;;;;;;;;;27.80;25.20;;;;;7.81;56.37;98976.63;5150924;27;8871;-73
2023/12/12 02:10:11;;;;;;;;;25.60;21.20;;;;;7.61;56.53;98979.63;5151065;27;8870;-75
2023/12/12 02:12:40;;;;;;;;;19.80;19.20;;;;;7.74;55.46;98979.38;5147829;27;8847;-74
2023/12/12 02:15:11;;;;;;;;;24.60;22.00;;;;;7.76;55.71;98968.03;5132863;27;8878;-75
2023/12/12 02:17:40;;;;;;;;;25.40;22.00;;;;;7.86;55.31;98971.31;5150916;27;8843;-75
2023/12/12 02:20:09;;;;;;;;;27.60;24.00;;;;;7.89;55.28;98971.25;5149663;27;8831;-74
2023/12/12 02:22:40;;;;;;;;;23.80;23.20;;;;;7.91;55.96;98976.44;5150913;27;8898;-76
2023/12/12 02:25:09;;;;;;;;;24.00;23.00;;;;;7.67;56.39;98974.28;5077113;27;8837;-74
2023/12/12 02:27:39;;;;;;;;;21.80;19.20;;;;;7.74;56.72;98979.38;5140598;27;8887;-75
2023/12/12 02:30:08;;;;;;;;;22.60;21.00;;;;;7.69;58.63;98979.47;5151232;27;8855;-75
2023/12/12 02:32:37;;;;;;;;;25.40;23.20;;;;;7.76;59.17;98974.97;5134399;27;8839;-75
2023/12/12 02:35:07;;;;;;;;;26.00;23.40;;;;;7.77;58.76;98972.34;5151409;27;8839;-75
2023/12/12 02:37:36;;;;;;;;;22.60;21.60;;;;;7.74;59.19;98979.38;5114517;27;8859;-75
2023/12/12 02:40:08;;;;;;;;;26.00;24.60;;;;;7.79;59.91;98980.16;5150945;27;8965;-75
2023/12/12 02:42:37;;;;;;;;;22.00;20.60;;;;;7.59;58.58;98980.53;5147157;27;8907;-76
2023/12/12 02:45:06;;;;;;;;;22.00;20.40;;;;;7.55;58.64;98982.34;5096674;27;8835;-75
2023/12/12 02:47:35;;;;;;;;;20.60;20.60;;;;;7.45;59.43;98988.63;5098110;27;8855;-75
2023/12/12 02:50:05;;;;;;;;;21.20;21.20;;;;;7.40;60.07;98988.72;5131428;27;8859;-76
2023/12/12 02:52:34;;;;;;;;;19.80;19.40;;;;;7.45;59.33;98999.09;5150642;27;8831;-76
2023/12/12 02:55:04;;;;;;;;;23.40;22.80;;;;;7.48;59.41;99009.50;5132005;27;8835;-75
2023/12/12 02:57:34;;;;;;;;;16.00;15.40;;;;;7.35;60.22;99002.75;5147457;27;8875;-75
2023/12/12 03:00:05;;;;;;;;;11.80;11.80;;;;;7.27;60.10;99003.72;5097012;27;8856;-75
2023/12/12 03:02:34;;;;;;;;;18.60;16.80;;;;;7.28;59.52;99008.06;5150056;27;8847;-75
2023/12/12 03:05:04;;;;;;;;;15.40;15.00;;;;;7.22;59.62;98997.72;5150484;27;9107;-75
2023/12/12 03:07:34;;;;;;;;;20.20;20.00;;;;;7.11;59.96;99006.63;5131276;27;8845;-75
2023/12/12 03:10:03;;;;;;;;;18.00;17.60;;;;;6.95;60.13;99003.38;5129139;27;8857;-74
2023/12/12 03:12:34;;;;;;;;;16.00;14.80;;;;;6.98;59.81;99003.31;5130070;27;8884;-75
2023/12/12 03:15:04;;;;;;;;;11.60;11.20;;;;;7.09;59.74;99001.41;5084803;27;8892;-74
2023/12/12 03:17:33;;;;;;;;;16.00;14.20;;;;;7.11;59.67;99002.25;5150157;27;8866;-75
2023/12/12 03:20:03;;;;;;;;;12.60;12.60;;;;;7.09;59.71;98993.56;5097713;27;8874;-76
2023/12/12 03:22:32;;;;;;;;;15.60;15.60;;;;;7.14;59.62;98985.66;5135669;27;8835;-74
2023/12/12 03:25:01;;;;;;;;;12.60;11.80;;;;;7.37;59.21;98977.44;5131944;27;9661;-74
2023/12/12 03:27:30;;;;;;;;;9.60;9.60;;;;;7.42;59.25;98986.94;5147138;27;8837;-76
2023/12/12 03:30:02;;;;;;;;;12.00;11.80;;;;;7.54;59.02;98985.84;5149153;27;8958;-76
2023/12/12 03:32:31;;;;;;;;;12.60;12.60;;;;;7.64;59.17;98991.78;5149659;27;8831;-75
2023/12/12 03:35:00;;;;;;;;;15.60;13.60;;;;;7.77;59.40;98977.56;5155238;27;8828;-75
2023/12/12 03:37:29;;;;;;;;;14.20;14.00;;;;;7.90;59.14;98975.59;5153580;27;8915;-76
2023/12/12 03:39:59;;;;;;;;;21.40;19.80;;;;;7.95;59.12;98981.63;5131291;27;8870;-76
2023/12/12 03:42:28;;;;;;;;;23.20;18.40;;;;;8.02;58.28;98979.72;5131216;27;8850;-74
2023/12/12 03:44:57;;;;;;;;;16.80;16.20;;;;;8.04;57.87;98984.06;5147258;27;8851;-76
2023/12/12 03:47:27;;;;;;;;;15.00;15.00;;;;;8.12;57.89;98980.41;5149244;27;8948;-75
2023/12/12 03:49:56;;;;;;;;;16.40;14.80;;;;;8.11;57.23;98989.16;5096470;27;8897;-74
2023/12/12 03:52:25;;;;;;;;;20.20;17.20;;;;;8.14;57.67;98989.13;5131020;27;8928;-74
2023/12/12 03:54:54;;;;;;;;;21.00;19.60;;;;;8.10;57.41;98990.94;5110911;27;8994;-75
2023/12/12 03:57:23;;;;;;;;;8.20;7.00;;;;;8.13;57.13;98993.47;5110557;27;8891;-74
2023/12/12 03:59:52;;;;;;;;;22.60;21.00;;;;;7.97;57.61;99000.75;5133943;27;8882;-76
2023/12/12 04:02:21;;;;;;;;;16.60;16.00;;;;;7.96;57.37;99000.78;5153709;27;8823;-76
2023/12/12 04:04:51;;;;;;;;;18.20;16.40;;;;;7.91;57.72;99007.84;5099882;27;9633;-75
2023/12/12 04:07:20;;;;;;;;;21.20;19.20;;;;;7.34;58.27;98998.41;5134641;27;8857;-75
2023/12/12 04:09:49;;;;;;;;;18.00;15.40;;;;;7.31;59.52;99009.78;5153352;27;8922;-75
2023/12/12 04:12:19;;;;;;;;;20.80;19.80;;;;;7.36;58.72;99000.13;5153056;27;8866;-77
2023/12/12 04:14:48;;;;;;;;;16.80;15.20;;;;;7.28;59.99;99002.81;5115971;27;8869;-77
2023/12/12 04:17:17;;;;;;;;;16.60;16.00;;;;;7.26;59.39;99006.38;5098147;27;8987;-76
2023/12/12 04:19:45;;;;;;;;;18.20;15.60;;;;;7.27;59.69;99005.50;5132928;27;8846;-75
2023/12/12 04:22:16;;;;;;;;;19.80;16.20;;;;;7.38;59.26;99005.28;5114375;27;8857;-74
2023/12/12 04:24:45;;;;;;;;;15.60;15.00;;;;;7.26;58.94;99011.59;5134938;27;8941;-76
2023/12/12 04:27:14;;;;;;;;;17.80;16.40;;;;;7.44;58.67;99013.91;5154528;27;8868;-74
2023/12/12 04:29:43;;;;;;;;;19.40;19.40;;;;;7.45;58.84;99012.16;5120880;27;8857;-75
2023/12/12 04:32:12;;;;;;;;;20.40;19.60;;;;;7.28;58.95;99018.50;5131997;27;8849;-75
2023/12/12 04:34:41;;;;;;;;;20.60;19.40;;;;;7.30;59.17;99026.34;5141557;27;8853;-75
2023/12/12 04:37:10;;;;;;;;;21.20;20.40;;;;;7.42;58.96;99030.50;5152967;27;8837;-76
2023/12/12 04:39:41;;;;;;;;;22.80;19.80;;;;;7.50;59.19;99040.88;5153106;27;8988;-76
2023/12/12 04:42:13;;;;;;;;;15.40;14.80;;;;;7.56;58.84;99040.75;5095949;27;8994;-75
2023/12/12 04:44:42;;;;;;;;;19.80;16.00;;;;;7.65;58.32;99051.06;5138941;27;8820;-75
2023/12/12 04:47:13;;;;;;;;;20.20;19.40;;;;;7.69;58.52;99050.13;5152748;27;9548;-76
2023/12/12 04:49:42;;;;;;;;;14.40;13.20;;;;;7.81;57.73;99054.25;5152612;27;8839;-75
2023/12/12 04:52:11;;;;;;;;;20.00;17.80;;;;;7.92;57.40;99070.63;5152846;27;8836;-77
2023/12/12 04:54:41;;;;;;;;;22.00;20.00;;;;;8.00;57.66;99076.59;5152611;27;8966;-77
2023/12/12 04:57:10;;;;;;;;;17.80;15.60;;;;;8.07;57.34;99087.81;5099977;27;8819;-75
2023/12/12 04:59:39;;;;;;;;;21.40;18.80;;;;;8.09;57.53;99091.28;5094000;27;9622;-76
2023/12/12 05:02:08;;;;;;;;;22.20;22.20;;;;;8.21;57.05;99095.41;5131886;27;8829;-76
2023/12/12 05:04:38;;;;;;;;;21.20;18.40;;;;;8.16;57.17;99105.13;5122220;27;8864;-74
2023/12/12 05:07:07;;;;;;;;;19.80;17.00;;;;;8.06;57.89;99107.03;5152384;27;8833;-76
2023/12/12 05:09:36;;;;;;;;;20.40;20.00;;;;;8.10;57.70;99110.47;5151407;27;8841;-77
2023/12/12 05:12:08;;;;;;;;;30.00;27.00;;;;;8.16;57.46;99111.22;5133857;27;8848;-75
2023/12/12 05:14:36;;;;;;;;;23.00;20.00;;;;;8.12;57.00;99116.53;5148506;27;8863;-76
2023/12/12 05:17:06;;;;;;;;;25.80;22.40;;;;;8.13;57.12;99119.13;5098693;27;8920;-76
2023/12/12 05:19:38;;;;;;;;;19.00;19.00;;;;;8.15;56.48;99113.88;5133008;27;9088;-76
2023/12/12 05:22:08;;;;;;;;;19.60;18.60;;;;;8.14;56.77;99106.91;5133332;27;8890;-77
2023/12/12 05:24:37;;;;;;;;;21.40;20.60;;;;;8.18;56.45;99108.59;5151560;27;8879;-74
2023/12/12 05:27:07;;;;;;;;;22.80;21.40;;;;;8.20;56.69;99109.41;5098382;27;8895;-75
2023/12/12 05:29:36;;;;;;;;;72.00;57.00;;;;;8.16;56.19;99111.22;5077316;27;9663;-75
2023/12/12 05:32:07;;;;;;;;;33.00;33.00;;;;;8.16;56.13;99107.75;5112264;27;8868;-75
2023/12/12 05:34:35;;;;;;;;;23.60;21.00;;;;;8.14;56.56;99107.78;5112269;27;8837;-74
2023/12/12 05:37:05;;;;;;;;;25.60;24.20;;;;;8.07;56.23;99108.78;5151557;27;9993;-75
2023/12/12 05:39:34;;;;;;;;;21.00;20.20;;;;;8.05;56.13;99102.69;5115565;27;8869;-76
2023/12/12 05:42:03;;;;;;;;;24.00;22.60;;;;;8.05;56.14;99103.56;5151701;27;8845;-76
2023/12/12 05:44:34;;;;;;;;;24.60;21.00;;;;;8.00;56.45;99100.16;5107647;28;8890;-77
2023/12/12 05:47:03;;;;;;;;;24.00;22.00;;;;;7.76;57.67;99104.06;5088587;28;9595;-76
2023/12/12 05:49:31;;;;;;;;;22.80;20.00;;;;;7.75;57.44;99107.56;5083329;28;8855;-76
2023/12/12 05:52:03;;;;;;;;;23.60;23.40;;;;;7.76;57.64;99111.03;5040605;28;8948;-77
2023/12/12 05:54:33;;;;;;;;;30.80;30.80;;;;;7.76;56.95;99101.47;5107118;28;9597;-75
2023/12/12 05:57:02;;;;;;;;;33.20;32.00;;;;;7.76;57.03;99103.19;5107064;28;8975;-74
2023/12/12 05:59:31;;;;;;;;;28.20;26.20;;;;;7.80;56.52;99107.50;5087689;28;9597;-75
2023/12/12 06:02:03;;;;;;;;;32.80;31.40;;;;;7.83;56.95;99110.06;5073001;28;8889;-75
2023/12/12 06:04:34;;;;;;;;;30.80;30.80;;;;;7.79;56.99;99109.22;5107298;28;8847;-77
2023/12/12 06:07:05;;;;;;;;;22.40;21.40;;;;;7.81;56.86;99098.75;5090012;28;8857;-77
2023/12/12 06:09:34;;;;;;;;;14.20;14.20;;;;;7.78;56.70;99104.91;5080791;28;9006;-77
2023/12/12 06:12:03;;;;;;;;;19.40;18.80;;;;;7.78;56.30;99114.47;5106027;27;8853;-75
2023/12/12 06:14:32;;;;;;;;;22.60;19.20;;;;;7.73;56.97;99121.56;5106156;28;8844;-77
2023/12/12 06:17:02;;;;;;;;;23.40;23.40;;;;;7.74;57.00;99125.91;5127278;27;8842;-74
2023/12/12 06:19:31;;;;;;;;;20.20;18.20;;;;;7.71;57.09;99121.59;5124588;27;8838;-75
2023/12/12 06:22:01;;;;;;;;;20.20;18.80;;;;;7.68;56.95;99117.28;5120786;27;8896;-76
2023/12/12 06:24:31;;;;;;;;;22.80;19.80;;;;;7.74;57.30;99123.28;5127209;27;8836;-75
2023/12/12 06:27:00;;;;;;;;;25.20;22.80;;;;;7.75;56.76;99127.63;5125833;27;8842;-76
2023/12/12 06:29:29;;;;;;;;;22.60;21.20;;;;;7.68;57.06;99121.63;5114439;27;9728;-75
2023/12/12 06:31:58;;;;;;;;;24.20;24.00;;;;;7.72;56.86;99125.94;5145438;27;8831;-79
2023/12/12 06:34:28;;;;;;;;;25.20;24.80;;;;;7.76;56.91;99129.34;5106079;27;8863;-76
2023/12/12 06:36:58;;;;;;;;;27.80;26.60;;;;;7.80;56.94;99131.91;5121126;27;8842;-76
2023/12/12 06:39:26;;;;;;;;;30.20;27.20;;;;;7.84;56.76;99136.19;5117132;27;8969;-77
2023/12/12 06:41:56;;;;;;;;;30.20;27.40;;;;;7.87;56.70;99146.63;5090615;27;8843;-75
2023/12/12 06:44:25;;;;;;;;;29.80;27.20;;;;;7.90;56.94;99148.31;5149581;27;8847;-76
2023/12/12 06:46:54;;;;;;;;;40.50;37.50;;;;;7.93;56.80;99153.50;5146084;27;8839;-77
2023/12/12 06:49:23;;;;;;;;;34.20;28.20;;;;;7.83;56.92;99155.38;5129756;27;8865;-77
2023/12/12 06:51:54;;;;;;;;;36.00;33.60;;;;;8.00;57.43;99151.63;5137267;27;8852;-79
2023/12/12 06:54:23;;;;;;;;;39.40;37.80;;;;;8.06;56.51;99157.66;5144095;27;8903;-77
2023/12/12 06:56:52;;;;;;;;;37.60;34.00;;;;;8.02;56.87;99163.84;5118179;27;8860;-76
2023/12/12 06:59:21;;;;;;;;;32.60;32.60;;;;;8.17;56.90;99169.69;5100110;27;8857;-77
2023/12/12 07:01:51;;;;;;;;;32.40;27.80;;;;;8.22;56.67;99160.00;5131927;27;8833;-77
2023/12/12 07:04:20;;;;;;;;;48.50;40.50;;;;;8.31;56.47;99165.13;5130961;27;8856;-76
2023/12/12 07:06:49;;;;;;;;;43.75;38.75;;;;;8.42;56.64;99170.13;5144293;27;8925;-76
2023/12/12 07:09:20;;;;;;;;;44.75;39.75;;;;;8.49;56.33;99166.50;5140856;27;8960;-77
2023/12/12 07:11:49;;;;;;;;;43.60;38.20;;;;;8.55;56.47;99169.00;5130797;27;8841;-68
2023/12/12 07:14:35;;;;;;;;;43.50;37.75;;;;;8.68;56.10;99168.78;5130210;27;10027;-72
2023/12/12 07:17:05;;;;;;;;;43.50;38.00;;;;;8.70;55.55;99175.72;5149492;27;8922;-76
2023/12/12 07:19:34;;;;;;;;;46.00;39.50;;;;;8.70;55.42;99167.00;5149488;27;8861;-77
2023/12/12 07:22:04;;;;;;;;;47.25;40.50;;;;;8.73;55.02;99175.69;5149943;27;8888;-75
2023/12/12 07:24:35;;;;;;;;;53.25;44.00;;;;;8.88;55.40;99178.91;5151294;27;8833;-83
2023/12/12 07:27:05;;;;;;;;;54.25;44.00;;;;;8.74;55.16;99173.91;5133185;27;8856;-80
2023/12/12 07:29:34;;;;;;;;;55.25;44.75;;;;;8.79;54.87;99178.16;5082765;27;8966;-82
2023/12/12 07:32:04;;;;;;;;;51.75;40.75;;;;;8.92;54.54;99172.69;5151525;27;8853;-82
2023/12/12 07:34:35;;;;;;;;;54.00;43.25;;;;;9.01;54.78;99177.75;5127149;27;9608;-80
2023/12/12 07:37:05;;;;;;;;;49.25;41.25;;;;;9.02;54.30;99180.31;5121057;27;8856;-82
2023/12/12 07:39:36;;;;;;;;;49.00;42.00;;;;;9.24;54.90;99182.50;5137603;27;8865;-82
2023/12/12 07:42:05;;;;;;;;;54.50;45.00;;;;;9.37;54.15;99189.22;5135017;27;8825;-81
2023/12/12 07:44:34;;;;;;;;;48.80;41.40;;;;;9.54;54.27;99188.84;5119452;27;8944;-82
2023/12/12 07:47:04;;;;;;;;;50.00;42.50;;;;;9.70;53.90;99199.03;5119540;27;8879;-81
2023/12/12 07:49:33;;;;;;;;;53.00;43.25;;;;;9.82;53.83;99188.25;5137023;27;8896;-80
2023/12/12 07:52:01;;;;;;;;;40.50;37.50;;;;;9.94;53.59;99195.81;5154853;27;9643;-84
2023/12/12 07:54:30;;;;;;;;;53.50;44.00;;;;;10.02;53.22;99201.75;5155897;27;8987;-79
2023/12/12 07:57:01;;;;;;;;;50.75;40.75;;;;;10.13;53.04;99209.38;5137485;27;8872;-81
2023/12/12 07:59:30;;;;;;;;;47.00;39.00;;;;;10.22;52.92;99224.06;5169568;27;8928;-81
2023/12/12 08:01:59;;;;;;;;;56.00;47.00;;;;;10.32;52.47;99220.28;5117385;27;8984;-81
2023/12/12 08:04:29;;;;;;;;;53.00;44.50;;;;;10.42;52.24;99217.44;5137071;27;8957;-82
2023/12/12 08:06:59;;;;;;;;;54.00;45.25;;;;;10.50;52.03;99210.19;5102711;27;8853;-85
2023/12/12 08:09:29;;;;;;;;;56.50;47.75;;;;;10.58;52.01;99218.75;5116516;27;8877;-82
2023/12/12 08:11:58;;;;;;;;;50.75;43.25;;;;;10.67;51.24;99209.75;5144600;27;8956;-86
2023/12/12 08:14:28;;;;;;;;;57.75;49.25;;;;;10.70;51.29;99212.31;5137750;27;8903;-84
2023/12/12 08:16:58;;;;;;;;;59.50;49.00;;;;;10.77;51.21;99208.66;5155521;27;9641;-82
2023/12/12 08:19:26;;;;;;;;;62.25;50.00;;;;;10.72;50.37;99213.97;5136340;27;9571;-84
2023/12/12 08:21:56;;;;;;;;;69.25;54.50;;;;;10.76;50.67;99213.06;5154712;27;8849;-82
2023/12/12 08:24:25;;;;;;;;;70.50;57.00;;;;;10.82;50.75;99208.50;5154378;27;8845;-82
2023/12/12 08:26:54;;;;;;;;;65.75;52.25;;;;;10.84;50.72;99215.47;5118894;27;8917;-82
2023/12/12 08:29:23;;;;;;;;;68.50;55.00;;;;;10.89;50.71;99213.56;5135924;27;8888;-85
2023/12/12 08:31:54;;;;;;;;;61.25;49.75;;;;;10.90;50.28;99214.44;5154368;27;8963;-84
2023/12/12 08:34:23;;;;;;;;;60.50;50.00;;;;;10.90;50.20;99207.41;5155474;27;8880;-83
2023/12/12 08:36:53;;;;;;;;;59.75;49.25;;;;;10.94;50.30;99209.03;5119457;27;8908;-84
2023/12/12 08:39:22;;;;;;;;;59.25;47.75;;;;;11.03;50.31;99209.69;5156746;27;8853;-83
2023/12/12 08:41:51;;;;;;;;;53.50;44.75;;;;;11.07;49.82;99206.09;5151397;27;8857;-83
2023/12/12 08:44:20;;;;;;;;;57.50;46.75;;;;;11.15;50.45;99206.72;5163909;27;8879;-83
2023/12/12 08:46:50;;;;;;;;;55.50;46.50;;;;;11.22;50.23;99194.22;5136958;27;9878;-80
2023/12/12 08:49:20;;;;;;;;;54.25;45.00;;;;;11.25;50.19;99199.41;5119871;27;8865;-81
2023/12/12 08:51:49;;;;;;;;;49.75;41.25;;;;;11.30;49.90;99190.47;5149821;27;8991;-82
2023/12/12 08:54:18;;;;;;;;;52.50;44.00;;;;;11.37;49.84;99197.28;5135664;27;8891;-83
2023/12/12 08:56:52;;;;;;;;;52.25;42.75;;;;;11.46;49.55;99205.81;5090787;28;8850;-83
2023/12/12 08:59:22;;;;;;;;;56.25;45.00;;;;;11.42;50.16;99199.75;5073757;28;8926;-81
2023/12/12 09:01:51;;;;;;;;;54.00;45.00;;;;;11.47;49.36;99208.41;5090887;28;8878;-84
2023/12/12 09:04:22;;;;;;;;;53.00;43.00;;;;;11.54;49.49;99207.31;5073500;28;8996;-84
2023/12/12 09:06:51;;;;;;;;;51.50;43.50;;;;;11.61;49.45;99205.34;5090885;28;8931;-82
2023/12/12 09:09:21;;;;;;;;;57.50;47.00;;;;;11.73;49.91;99209.38;5049698;28;8854;-83
2023/12/12 09:11:51;;;;;;;;;54.00;44.50;;;;;11.47;49.51;99215.44;5016165;28;8865;-83
2023/12/12 09:14:19;;;;;;;;;40.50;36.50;;;;;11.45;49.45;99215.47;5034279;28;8854;-82
2023/12/12 09:16:49;;;;;;;;;48.75;39.50;;;;;11.51;49.74;99212.66;5016411;28;8908;-81
2023/12/12 09:19:17;;;;;;;;;57.00;47.00;;;;;11.32;51.09;99207.06;4990856;28;8853;-84
2023/12/12 09:21:49;;;;;;;;;51.75;42.75;;;;;11.45;50.96;99206.72;4975037;28;8872;-82
2023/12/12 09:24:18;;;;;;;;;50.75;42.75;;;;;11.63;51.14;99203.50;4974471;28;8988;-84
2023/12/12 09:26:48;;;;;;;;;50.00;41.75;;;;;11.81;50.75;99201.25;4990611;28;8877;-83
2023/12/12 09:29:16;;;;;;;;;45.60;40.00;;;;;11.95;50.34;99193.78;4997012;28;8950;-84
2023/12/12 09:31:46;;;;;;;;;42.60;37.00;;;;;12.01;49.41;99190.94;5029015;28;8884;-81
2023/12/12 09:34:15;;;;;;;;;41.20;36.00;;;;;12.12;49.07;99195.84;5028992;28;8895;-81
2023/12/12 09:36:44;;;;;;;;;37.20;34.20;;;;;12.21;48.76;99190.28;5014759;28;8844;-81
2023/12/12 09:39:15;;;;;;;;;38.60;35.40;;;;;12.23;48.31;99180.56;5016002;28;8833;-81
2023/12/12 09:41:47;;;;;;;;;40.40;36.20;;;;;12.30;47.81;99171.53;5051464;28;8846;-80
2023/12/12 09:44:18;;;;;;;;;37.20;34.20;;;;;12.35;48.31;99166.09;5055755;28;8846;-80
2023/12/12 09:46:51;;;;;;;;;35.20;32.80;;;;;12.39;47.49;99157.19;5023696;28;8852;-82
2023/12/12 09:49:20;;;;;;;;;32.00;28.60;;;;;12.31;47.55;99154.78;4993976;28;8874;-82
2023/12/12 09:51:52;;;;;;;;;18.00;16.00;;;;;11.90;46.16;99151.78;4993928;28;8896;-83
2023/12/12 09:54:24;;;;;;;;;25.20;25.20;;;;;12.12;47.11;99138.75;4992941;28;8849;-80
2023/12/12 09:56:55;;;;;;;;;26.40;19.20;;;;;12.18;46.19;99139.47;4995176;28;8840;-81
2023/12/12 09:59:23;;;;;;;;;21.80;20.40;;;;;12.21;46.53;99139.38;5012916;28;8860;-81
2023/12/12 10:01:57;;;;;;;;;18.00;17.60;;;;;12.23;45.62;99133.13;5012279;28;8935;-80
2023/12/12 10:04:38;;;;;;;;;19.20;19.20;;;;;12.36;45.85;99130.94;5031100;28;8858;-82
2023/12/12 10:07:09;;;;;;;;;23.60;21.60;;;;;12.35;46.07;99129.19;5032218;28;8858;-82
2023/12/12 10:09:39;;;;;;;;;27.20;24.40;;;;;12.49;46.27;99129.56;5031728;28;8830;-83
2023/12/12 10:12:09;;;;;;;;;25.20;23.20;;;;;12.54;46.55;99118.84;5007204;28;8853;-82
2023/12/12 10:14:39;;;;;;;;;27.80;26.00;;;;;12.66;46.29;99118.44;5075408;28;9004;-83
2023/12/12 10:17:10;;;;;;;;;19.60;19.00;;;;;12.39;45.09;99124.69;5074693;28;8842;-81
2023/12/12 10:19:40;;;;;;;;;17.40;17.40;;;;;12.61;45.27;99120.34;5089466;28;8969;-84
2023/12/12 10:22:10;;;;;;;;;18.60;16.60;;;;;12.77;44.63;99128.59;5089645;28;8888;-82
2023/12/12 10:24:40;;;;;;;;;21.40;21.00;;;;;12.56;44.69;99121.44;5096022;28;9820;-83
2023/12/12 10:27:21;;;;;;;;;15.00;14.80;;;;;12.40;44.67;99127.25;5093285;28;8987;-81
2023/12/12 10:29:50;;;;;;;;;19.00;18.00;;;;;12.43;45.53;99127.16;5127298;27;8845;-81
2023/12/12 10:32:19;;;;;;;;;15.80;15.80;;;;;12.44;45.73;99128.88;5110327;28;8857;-80
2023/12/12 10:34:47;;;;;;;;;20.60;18.00;;;;;12.65;45.75;99121.13;5117099;28;8853;-82
2023/12/12 10:37:21;;;;;;;;;12.20;10.80;;;;;12.80;44.99;99127.59;5122406;27;8861;-82
2023/12/12 10:39:52;;;;;;;;;15.40;14.60;;;;;12.96;45.24;99126.16;5130007;27;8834;-81
2023/12/12 10:42:21;;;;;;;;;19.20;17.20;;;;;13.08;44.99;99109.84;5113129;27;8889;-82
2023/12/12 10:44:57;;;;;;;;;15.60;12.60;;;;;13.12;45.03;99121.16;5095200;27;8941;-83
2023/12/12 10:47:27;;;;;;;;;11.20;10.20;;;;;13.20;44.14;99118.22;5131311;27;8850;-82
2023/12/12 10:50:01;;;;;;;;;10.00;9.00;;;;;13.33;44.11;99119.47;5131246;27;8839;-81
2023/12/12 10:52:33;;;;;;;;;17.40;16.20;;;;;13.36;43.79;99124.63;5132053;27;8985;-82
2023/12/12 10:55:06;;;;;;;;;13.20;12.00;;;;;13.37;43.81;99117.56;5145741;27;8846;-80
2023/12/12 10:57:38;;;;;;;;;13.20;12.00;;;;;13.38;44.25;99114.00;5121848;27;8900;-82
2023/12/12 11:00:11;;;;;;;;;10.00;9.00;;;;;13.52;43.82;99114.31;5143162;27;8861;-83
2023/12/12 11:02:47;;;;;;;;;10.20;9.60;;;;;13.55;43.35;99102.78;5130874;27;8834;-84
2023/12/12 11:05:17;;;;;;;;;13.20;12.00;;;;;13.66;42.99;99103.22;5131283;27;8831;-84
2023/12/12 11:07:47;;;;;;;;;10.20;9.60;;;;;13.62;42.70;99096.31;5129167;27;8850;-81
2023/12/12 11:10:22;;;;;;;;;12.80;12.00;;;;;13.51;42.81;99094.13;5112641;27;8850;-82
2023/12/12 11:12:54;;;;;;;;;16.00;14.40;;;;;13.64;42.88;99105.91;5130379;27;8842;-82
2023/12/12 11:15:25;;;;;;;;;12.20;10.80;;;;;13.69;42.92;99106.59;5131570;27;8974;-82
2023/12/12 11:17:54;;;;;;;;;8.00;8.00;;;;;13.83;42.58;99108.69;5130367;27;8862;-83
2023/12/12 11:20:24;;;;;;;;;9.00;9.00;;;;;13.37;42.84;99115.78;5130284;27;9697;-82
2023/12/12 11:22:54;;;;;;;;;10.00;9.40;;;;;13.56;42.46;99100.06;5130222;27;8930;-81
2023/12/12 11:25:30;;;;;;;;;12.20;10.00;;;;;13.56;42.56;99105.34;5121694;27;8839;-81
2023/12/12 11:28:00;;;;;;;;;9.00;9.00;;;;;13.56;42.80;99094.78;5142611;27;8855;-82
2023/12/12 11:30:32;;;;;;;;;12.20;11.00;;;;;13.28;43.48;99106.44;5134101;27;8882;-82
2023/12/12 11:33:01;;;;;;;;;14.60;14.60;;;;;13.49;43.01;99106.53;5096254;27;8858;-81
2023/12/12 11:35:32;;;;;;;;;13.60;11.60;;;;;13.59;43.33;99104.38;5141720;27;8876;-83
2023/12/12 11:38:04;;;;;;;;;8.80;7.00;;;;;13.69;43.03;99116.28;5136176;27;8827;-81
2023/12/12 11:40:37;;;;;;;;;12.80;8.60;;;;;13.59;42.91;99114.94;5064553;27;8846;-81
2023/12/12 11:43:20;;;;;;;;;13.60;12.40;;;;;13.92;42.91;99098.63;5065087;27;8854;-82